EGCC/MAN METAR and TAF weather

Enter ICAO airport designator
Station Type Date Time Source
EGCC METAR 2021/09/23 18:50 UTC NOAA

EGCC 231850Z AUTO 30004KT 9999 BKN013 15/12 Q1019 TEMPO SCT013


Station Type Date Time Source
EGCC Decoded METAR 2021/09/23 18:50 UTC NOAA

Manchester Airport, United Kingdom (EGCC) 53-21N 002-17W 0M
Sep 23, 2021 - 02:50 PM EDT / 2021.09.23 1850 UTC
Wind: from the WNW (300 degrees) at 5 MPH (4 KT):0
Visibility: greater than 7 mile(s):0
Sky conditions: mostly cloudy
Temperature: 59 F (15 C)
Dew Point: 53 F (12 C)
Relative Humidity: 82%
Pressure (altimeter): 30.09 in. Hg (1019 hPa)
ob: EGCC 231850Z AUTO 30004KT 9999 BKN013 15/12 Q1019 TEMPO SCT013
cycle: 19

Station Type Date Time Source
EGCC TAF 2021/09/23 18:29 UTC NOAA

TAF EGCC 231659Z 2318/2424 28010KT 9999 SCT016
BECMG 2320/2323 22007KT
BECMG 2406/2409 BKN010
BECMG 2409/2412 28010KT PROB40
TEMPO 2409/2424 4000 RADZ BKN007

Example: see airport list